createdAt,value
2017-04-26T04:00:56.237Z,0
2017-04-26T04:01:21.775Z,0
2017-04-26T04:01:47.188Z,0
2017-04-26T04:02:12.823Z,0
2017-04-26T04:02:38.242Z,0
2017-04-26T04:03:03.687Z,5
2017-04-26T04:03:29.152Z,5
2017-04-26T04:03:54.636Z,5
2017-04-26T04:04:20.084Z,5
2017-04-26T04:04:45.624Z,5
2017-04-26T04:05:11.072Z,5
2017-04-26T04:05:36.636Z,5
2017-04-26T04:06:02.058Z,5
2017-04-26T04:06:27.532Z,5
2017-04-26T04:06:53.012Z,5
2017-04-26T04:07:18.445Z,5
2017-04-26T04:07:43.932Z,5
2017-04-26T04:08:09.364Z,5
2017-04-26T04:08:34.840Z,5
2017-04-26T04:09:00.322Z,5
2017-04-26T04:09:25.830Z,5
2017-04-26T04:09:51.341Z,5
2017-04-26T04:10:16.816Z,5
2017-04-26T04:10:42.420Z,5
2017-04-26T04:11:07.953Z,10
2017-04-26T04:11:33.437Z,10
2017-04-26T04:11:58.901Z,10
2017-04-26T04:12:24.523Z,10
2017-04-26T04:12:50.049Z,10
2017-04-26T04:13:15.683Z,10
2017-04-26T04:13:41.113Z,10
2017-04-26T04:14:06.587Z,10
2017-04-26T04:14:31.976Z,10
2017-04-26T04:14:57.454Z,10
2017-04-26T04:15:22.926Z,10
2017-04-26T04:15:48.349Z,10
2017-04-26T04:16:13.829Z,10
2017-04-26T04:16:39.519Z,10
2017-04-26T04:17:05.050Z,15
2017-04-26T04:17:30.582Z,15
2017-04-26T04:17:56.132Z,15
2017-04-26T04:18:21.516Z,15
2017-04-26T04:18:47.019Z,15
2017-04-26T04:19:12.523Z,15
2017-04-26T04:19:37.995Z,15
2017-04-26T04:20:03.537Z,15
2017-04-26T04:20:28.936Z,15
2017-04-26T04:20:54.471Z,15
2017-04-26T04:21:19.927Z,15
2017-04-26T04:21:45.384Z,20
2017-04-26T04:22:10.882Z,20
2017-04-26T04:22:36.378Z,20
2017-04-26T04:23:01.866Z,20
2017-04-26T04:23:27.352Z,20
2017-04-26T04:23:52.805Z,20
2017-04-26T04:24:18.296Z,20
2017-04-26T04:24:43.845Z,20
2017-04-26T04:25:09.310Z,20
2017-04-26T04:25:34.768Z,25
2017-04-26T04:26:00.255Z,25
2017-04-26T04:26:25.735Z,25
2017-04-26T04:26:51.181Z,25
2017-04-26T04:27:16.662Z,25
2017-04-26T04:27:42.136Z,25
2017-04-26T04:28:07.658Z,25
2017-04-26T04:28:33.103Z,25
2017-04-26T04:28:58.614Z,25
2017-04-26T04:29:24.041Z,30
2017-04-26T04:29:49.529Z,30
2017-04-26T04:30:14.996Z,30
2017-04-26T04:30:40.454Z,30
2017-04-26T04:31:05.931Z,30
2017-04-26T04:31:31.397Z,30
2017-04-26T04:31:56.906Z,30
2017-04-26T04:32:22.308Z,30
2017-04-26T04:32:47.802Z,35
2017-04-26T04:33:13.307Z,35
2017-04-26T04:33:38.734Z,35
2017-04-26T04:34:04.203Z,35
2017-04-26T04:34:29.683Z,35
2017-04-26T04:34:55.136Z,35
2017-04-26T04:35:20.728Z,35
2017-04-26T04:35:46.149Z,35
2017-04-26T04:36:11.637Z,35
2017-04-26T04:36:37.060Z,40
2017-04-26T04:37:02.540Z,40
2017-04-26T04:37:28.027Z,40
2017-04-26T04:37:53.484Z,40
2017-04-26T04:38:18.923Z,40
2017-04-26T04:38:44.679Z,40
2017-04-26T04:39:10.173Z,40
2017-04-26T04:39:35.622Z,40
2017-04-26T04:40:01.085Z,40
2017-04-26T04:40:26.581Z,45
2017-04-26T04:40:52.070Z,45
2017-04-26T04:41:17.528Z,45
2017-04-26T04:41:43.020Z,45
2017-04-26T04:42:08.455Z,45
2017-04-26T04:42:33.990Z,45
2017-04-26T04:42:59.596Z,45
2017-04-26T04:43:25.087Z,45
2017-04-26T04:43:50.571Z,45
2017-04-26T04:44:16.036Z,50
2017-04-26T04:44:41.556Z,50
2017-04-26T04:45:07.062Z,50
2017-04-26T04:45:32.448Z,50
2017-04-26T04:45:57.889Z,50
2017-04-26T04:46:23.382Z,50
2017-04-26T04:46:48.852Z,50
2017-04-26T04:47:14.309Z,50
2017-04-26T04:47:39.761Z,55
2017-04-26T04:48:05.232Z,55
2017-04-26T04:48:30.713Z,55
2017-04-26T04:48:56.170Z,55
2017-04-26T04:49:21.649Z,55
2017-04-26T04:49:47.139Z,55
2017-04-26T04:50:12.587Z,60
2017-04-26T04:50:38.075Z,60
2017-04-26T04:51:03.538Z,60
2017-04-26T04:51:28.998Z,60
2017-04-26T04:51:54.519Z,60
2017-04-26T04:52:19.969Z,60
2017-04-26T04:52:45.423Z,60
2017-04-26T04:53:10.909Z,60
2017-04-26T04:53:36.350Z,60
2017-04-26T04:54:01.798Z,65
2017-04-26T04:54:27.328Z,65
2017-04-26T04:54:52.763Z,65
2017-04-26T04:55:18.225Z,65
2017-04-26T04:55:43.792Z,65
2017-04-26T04:56:09.284Z,65
2017-04-26T04:56:34.710Z,65
2017-04-26T04:57:00.195Z,65
2017-04-26T04:57:25.689Z,65
2017-04-26T04:57:51.148Z,65
2017-04-26T04:58:16.587Z,65
2017-04-26T04:58:42.077Z,65
2017-04-26T04:59:07.550Z,65
2017-04-26T04:59:32.989Z,65
2017-04-26T04:59:58.462Z,70
2017-04-26T05:00:23.914Z,70
2017-04-26T05:00:49.370Z,70
2017-04-26T05:01:14.880Z,70
2017-04-26T05:01:40.359Z,70
2017-04-26T05:02:05.850Z,70
2017-04-26T05:02:31.285Z,70
2017-04-26T05:02:56.782Z,70
2017-04-26T05:03:22.319Z,70
2017-04-26T05:03:48.113Z,75
2017-04-26T05:04:13.553Z,75
2017-04-26T05:04:39.059Z,75
2017-04-26T05:05:04.527Z,75
2017-04-26T05:05:29.990Z,75
2017-04-26T05:05:55.547Z,75
2017-04-26T05:06:21.037Z,75
2017-04-26T05:06:46.532Z,75
2017-04-26T05:07:11.957Z,80
2017-04-26T05:07:37.428Z,80
2017-04-26T05:08:02.879Z,80
2017-04-26T05:08:28.348Z,80
2017-04-26T05:08:53.831Z,80
2017-04-26T05:09:19.377Z,80
2017-04-26T05:09:44.800Z,80
2017-04-26T05:10:10.212Z,85
2017-04-26T05:10:35.725Z,85
2017-04-26T05:11:01.174Z,85
2017-04-26T05:11:26.703Z,85
2017-04-26T05:11:52.579Z,85
2017-04-26T05:12:17.849Z,80
2017-04-26T05:12:43.310Z,85
2017-04-26T05:13:09.015Z,90
2017-04-26T05:13:34.581Z,90
2017-04-26T05:13:59.982Z,95
2017-04-26T05:14:25.453Z,95
2017-04-26T05:14:50.934Z,95
2017-04-26T05:15:16.497Z,95
2017-04-26T05:15:41.906Z,100
2017-04-26T05:16:07.433Z,95
2017-04-26T05:16:32.912Z,95
2017-04-26T05:16:58.410Z,95
2017-04-26T05:17:23.956Z,95
2017-04-26T05:17:49.404Z,95
2017-04-26T05:18:14.817Z,95
2017-04-26T05:18:40.287Z,95
2017-04-26T05:19:05.872Z,95
2017-04-26T05:19:31.201Z,95
2017-04-26T05:19:56.811Z,100
2017-04-26T05:20:22.249Z,100
2017-04-26T05:20:48.021Z,100
2017-04-26T05:21:13.462Z,100
2017-04-26T05:21:39.001Z,100
2017-04-26T05:22:04.514Z,100
2017-04-26T05:22:29.946Z,100
2017-04-26T05:22:55.355Z,100
2017-04-26T05:23:20.836Z,100
2017-04-26T05:23:46.299Z,100
2017-04-26T05:24:11.781Z,100
2017-04-26T05:24:37.258Z,100
2017-04-26T05:25:02.766Z,100
2017-04-26T05:25:28.302Z,100
2017-04-26T05:25:53.708Z,100
2017-04-26T05:26:19.170Z,105
2017-04-26T05:26:44.652Z,105
2017-04-26T05:27:10.200Z,105
2017-04-26T05:27:35.676Z,110
2017-04-26T05:28:01.158Z,110
2017-04-26T05:28:26.600Z,115
2017-04-26T05:28:52.041Z,115
2017-04-26T05:29:17.534Z,115
2017-04-26T05:29:43.001Z,120
2017-04-26T05:30:08.523Z,120
2017-04-26T05:30:33.977Z,120
2017-04-26T05:30:59.502Z,120
2017-04-26T05:31:25.059Z,125
2017-04-26T05:31:50.486Z,125
2017-04-26T05:32:15.918Z,120
2017-04-26T05:32:41.481Z,125
2017-04-26T05:33:06.918Z,125
2017-04-26T05:33:32.463Z,125
2017-04-26T05:33:57.875Z,120
2017-04-26T05:34:23.354Z,120
2017-04-26T05:34:48.837Z,120
2017-04-26T05:35:14.287Z,120
2017-04-26T05:35:39.764Z,120
2017-04-26T05:36:05.395Z,120
2017-04-26T05:36:31.081Z,120
2017-04-26T05:36:56.423Z,120
2017-04-26T05:37:21.923Z,120
2017-04-26T05:37:47.486Z,125
2017-04-26T05:38:12.883Z,125
2017-04-26T05:38:38.335Z,125
2017-04-26T05:39:03.824Z,125
2017-04-26T05:39:29.277Z,125
2017-04-26T05:39:54.804Z,130
2017-04-26T05:40:20.325Z,135
2017-04-26T05:40:45.750Z,135
2017-04-26T05:41:11.237Z,135
2017-04-26T05:41:36.682Z,140
2017-04-26T05:42:02.152Z,135
2017-04-26T05:42:27.652Z,135
2017-04-26T05:42:53.147Z,130
2017-04-26T05:43:18.636Z,130
2017-04-26T05:43:44.142Z,130
2017-04-26T05:44:09.966Z,130
2017-04-26T05:44:35.555Z,125
2017-04-26T05:45:01.026Z,125
2017-04-26T05:45:26.538Z,125
2017-04-26T05:45:52.001Z,125
2017-04-26T05:46:17.570Z,130
2017-04-26T05:46:43.088Z,125
2017-04-26T05:47:08.740Z,125
2017-04-26T05:47:34.231Z,125
2017-04-26T05:48:00.117Z,125
2017-04-26T05:48:25.684Z,125
2017-04-26T05:48:51.210Z,125
2017-04-26T05:49:16.874Z,125
2017-04-26T05:49:42.358Z,130
2017-04-26T05:50:07.983Z,130
2017-04-26T05:50:33.652Z,130
2017-04-26T05:50:59.063Z,130
2017-04-26T05:51:24.513Z,130
2017-04-26T05:51:49.988Z,135
2017-04-26T05:52:15.678Z,135
2017-04-26T05:52:41.034Z,135
2017-04-26T05:53:06.528Z,135
2017-04-26T05:53:32.084Z,135
2017-04-26T05:53:57.499Z,135
2017-04-26T05:54:22.980Z,135
2017-04-26T05:54:48.676Z,135
2017-04-26T05:55:14.006Z,135
2017-04-26T05:55:39.672Z,135
2017-04-26T05:56:05.116Z,140
2017-04-26T05:56:30.610Z,140
2017-04-26T05:56:56.089Z,140
2017-04-26T05:57:21.568Z,145
2017-04-26T05:57:47.043Z,145
2017-04-26T05:58:12.553Z,150
2017-04-26T05:58:37.999Z,150
2017-04-26T05:59:03.487Z,150
2017-04-26T05:59:28.957Z,150
2017-04-26T05:59:54.433Z,155
2017-04-26T06:00:19.954Z,155
2017-04-26T06:00:45.368Z,160
2017-04-26T06:01:10.862Z,165
2017-04-26T06:01:36.336Z,165
2017-04-26T06:02:01.788Z,165
2017-04-26T06:02:27.312Z,170
2017-04-26T06:02:52.762Z,170
2017-04-26T06:03:18.241Z,170
2017-04-26T06:03:43.724Z,165
2017-04-26T06:04:09.238Z,165
2017-04-26T06:04:34.713Z,170
2017-04-26T06:05:00.251Z,165
2017-04-26T06:05:25.738Z,165
2017-04-26T06:05:51.211Z,165
2017-04-26T06:06:16.669Z,165
2017-04-26T06:06:42.240Z,165
2017-04-26T06:07:07.687Z,165
2017-04-26T06:07:33.141Z,170
2017-04-26T06:07:58.629Z,170
2017-04-26T06:08:24.128Z,170
2017-04-26T06:08:49.636Z,170
2017-04-26T06:09:15.088Z,175
2017-04-26T06:09:40.583Z,175
2017-04-26T06:10:06.078Z,175
2017-04-26T06:10:31.692Z,175
2017-04-26T06:10:57.148Z,175
2017-04-26T06:11:22.619Z,175
2017-04-26T06:11:48.099Z,180
2017-04-26T06:12:13.579Z,180
2017-04-26T06:12:39.090Z,180
2017-04-26T06:13:04.581Z,175
2017-04-26T06:13:30.047Z,175
2017-04-26T06:13:55.573Z,175
2017-04-26T06:14:21.056Z,175
2017-04-26T06:14:46.518Z,180
2017-04-26T06:15:12.150Z,180
2017-04-26T06:15:37.597Z,175
2017-04-26T06:16:03.096Z,175
2017-04-26T06:16:28.568Z,175
2017-04-26T06:16:54.147Z,170
2017-04-26T06:17:19.610Z,170
2017-04-26T06:17:45.076Z,170
2017-04-26T06:18:10.605Z,170
2017-04-26T06:18:36.021Z,175
2017-04-26T06:19:01.453Z,175
2017-04-26T06:19:27.000Z,175
2017-04-26T06:19:52.681Z,175
2017-04-26T06:20:18.276Z,175
2017-04-26T06:20:43.769Z,175
2017-04-26T06:21:09.446Z,175
2017-04-26T06:21:35.056Z,180
2017-04-26T06:22:00.461Z,180
2017-04-26T06:22:25.935Z,180
2017-04-26T06:22:51.408Z,180
2017-04-26T06:23:16.972Z,180
2017-04-26T06:23:42.672Z,180
2017-04-26T06:24:08.115Z,180
2017-04-26T06:24:33.636Z,175
2017-04-26T06:24:59.105Z,175
2017-04-26T06:25:24.564Z,175
2017-04-26T06:25:50.059Z,175
2017-04-26T06:26:15.529Z,175
2017-04-26T06:26:40.979Z,175
2017-04-26T06:27:06.481Z,175
2017-04-26T06:27:31.985Z,175
2017-04-26T06:27:57.582Z,180
2017-04-26T06:28:22.963Z,180
2017-04-26T06:28:48.427Z,180
2017-04-26T06:29:13.858Z,185
2017-04-26T06:29:39.378Z,185
2017-04-26T06:30:04.793Z,185
2017-04-26T06:30:30.280Z,185
2017-04-26T06:30:55.764Z,185
2017-04-26T06:31:21.218Z,185
2017-04-26T06:31:46.682Z,190
2017-04-26T06:32:12.182Z,190
2017-04-26T06:32:37.648Z,195
2017-04-26T06:33:03.188Z,195
2017-04-26T06:33:28.662Z,205
2017-04-26T06:33:54.085Z,200
2017-04-26T06:34:19.585Z,200
2017-04-26T06:34:44.995Z,200
2017-04-26T06:35:10.544Z,195
2017-04-26T06:35:36.087Z,195
2017-04-26T06:36:01.478Z,205
2017-04-26T06:36:26.960Z,200
2017-04-26T06:36:52.479Z,200
2017-04-26T06:37:17.931Z,205
2017-04-26T06:37:43.430Z,210
2017-04-26T06:38:08.902Z,215
2017-04-26T06:38:34.341Z,215
2017-04-26T06:38:59.855Z,220
2017-04-26T06:39:25.300Z,225
2017-04-26T06:39:50.757Z,225
2017-04-26T06:40:16.200Z,230
2017-04-26T06:40:41.751Z,230
2017-04-26T06:41:07.193Z,230
2017-04-26T06:41:32.716Z,230
2017-04-26T06:41:58.150Z,240
2017-04-26T06:42:23.698Z,240
2017-04-26T06:42:49.115Z,245
2017-04-26T06:43:14.616Z,245
2017-04-26T06:43:40.131Z,245
2017-04-26T06:44:05.583Z,245
2017-04-26T06:45:14.267Z,240
2017-04-26T06:45:39.776Z,240
2017-04-26T06:46:05.228Z,240
2017-04-26T06:46:30.691Z,245
2017-04-26T06:46:56.211Z,240
2017-04-26T06:47:21.729Z,240
2017-04-26T06:47:47.190Z,240
2017-04-26T06:48:12.636Z,240
2017-04-26T06:48:38.088Z,240
2017-04-26T06:49:03.532Z,240
2017-04-26T06:49:29.009Z,240
2017-04-26T06:49:54.465Z,240
2017-04-26T06:50:19.980Z,240
2017-04-26T06:50:45.403Z,245
2017-04-26T06:51:10.873Z,245
2017-04-26T06:51:36.453Z,245
2017-04-26T06:52:01.986Z,245
2017-04-26T06:52:27.405Z,245
2017-04-26T06:52:52.893Z,245
2017-04-26T06:53:18.359Z,245
2017-04-26T06:53:43.842Z,240
2017-04-26T06:54:09.278Z,240
2017-04-26T06:54:34.753Z,240
2017-04-26T06:55:00.199Z,240
2017-04-26T06:55:25.685Z,240
2017-04-26T06:55:51.129Z,240
2017-04-26T06:56:16.662Z,240
2017-04-26T06:56:42.129Z,240
2017-04-26T06:57:07.613Z,240
2017-04-26T06:57:33.041Z,235
2017-04-26T06:57:58.539Z,235
2017-04-26T06:58:23.995Z,235
2017-04-26T06:58:49.462Z,240
2017-04-26T06:59:14.919Z,240
2017-04-26T06:59:40.374Z,235
2017-04-26T07:00:05.875Z,235
2017-04-26T07:00:31.310Z,235
2017-04-26T07:00:56.796Z,235
2017-04-26T07:01:22.271Z,235
2017-04-26T07:01:47.746Z,235
2017-04-26T07:02:13.228Z,230
2017-04-26T07:02:38.725Z,230
2017-04-26T07:03:04.186Z,235
2017-04-26T07:03:29.673Z,235
2017-04-26T07:03:55.165Z,230
2017-04-26T07:04:20.601Z,230
2017-04-26T07:04:46.127Z,230
2017-04-26T07:05:11.576Z,235
2017-04-26T07:05:37.060Z,235
2017-04-26T07:06:02.496Z,240
2017-04-26T07:06:27.960Z,240
2017-04-26T07:06:53.495Z,245
2017-04-26T07:07:18.987Z,245
2017-04-26T07:07:44.498Z,250
2017-04-26T07:08:09.919Z,250
2017-04-26T07:08:35.414Z,255
2017-04-26T07:09:00.910Z,255
2017-04-26T07:09:26.342Z,260
2017-04-26T07:09:51.816Z,265
2017-04-26T07:10:17.255Z,265
2017-04-26T07:10:42.783Z,270
2017-04-26T07:11:08.184Z,275
2017-04-26T07:11:33.637Z,275
2017-04-26T07:11:59.193Z,280
2017-04-26T07:12:24.714Z,280
2017-04-26T07:12:50.249Z,280
2017-04-26T07:13:15.828Z,280
2017-04-26T07:13:41.462Z,280
2017-04-26T07:14:06.883Z,285
2017-04-26T07:14:32.474Z,285
2017-04-26T07:14:57.990Z,290
2017-04-26T07:15:23.514Z,295
2017-04-26T07:15:49.025Z,295
2017-04-26T07:16:14.445Z,300
2017-04-26T07:16:39.939Z,305
2017-04-26T07:17:05.419Z,305
2017-04-26T07:17:30.906Z,305
2017-04-26T07:17:56.585Z,310
2017-04-26T07:18:22.194Z,310
2017-04-26T07:18:47.996Z,310
2017-04-26T07:19:13.487Z,310
2017-04-26T07:19:39.057Z,310
2017-04-26T07:20:04.524Z,310
2017-04-26T07:20:30.005Z,310
2017-04-26T07:20:55.508Z,310
2017-04-26T07:21:20.977Z,315
2017-04-26T07:21:46.449Z,315
2017-04-26T07:22:11.897Z,325
2017-04-26T07:22:37.567Z,320
2017-04-26T07:23:03.278Z,325
2017-04-26T07:23:29.150Z,325
2017-04-26T07:23:54.706Z,325
2017-04-26T07:24:20.161Z,330
2017-04-26T07:24:45.630Z,330
2017-04-26T07:25:11.105Z,335
2017-04-26T07:25:36.616Z,335
2017-04-26T07:26:02.070Z,340
2017-04-26T07:26:27.510Z,340
2017-04-26T07:26:52.990Z,340
2017-04-26T07:27:18.486Z,340
2017-04-26T07:27:43.962Z,340
2017-04-26T07:28:09.403Z,340
2017-04-26T07:28:34.966Z,340
2017-04-26T07:29:00.432Z,340
2017-04-26T07:29:25.883Z,345
2017-04-26T07:29:51.337Z,340
2017-04-26T07:30:17.083Z,340
2017-04-26T07:30:42.468Z,340
2017-04-26T07:31:08.021Z,340
2017-04-26T07:31:33.506Z,340
2017-04-26T07:31:59.172Z,345
2017-04-26T07:32:24.709Z,350
2017-04-26T07:32:50.335Z,345
2017-04-26T07:33:15.770Z,345
2017-04-26T07:33:41.312Z,345
2017-04-26T07:34:06.802Z,345
2017-04-26T07:34:32.436Z,345
2017-04-26T07:34:57.945Z,340
2017-04-26T07:35:23.368Z,340
2017-04-26T07:35:48.955Z,340
2017-04-26T07:36:14.329Z,340
2017-04-26T07:36:39.761Z,340
2017-04-26T07:37:05.228Z,340
2017-04-26T07:37:30.744Z,340
2017-04-26T07:37:56.244Z,340
2017-04-26T07:38:21.686Z,335
2017-04-26T07:38:47.136Z,335
2017-04-26T07:39:12.618Z,335
2017-04-26T07:39:38.099Z,335
2017-04-26T07:40:03.616Z,335
2017-04-26T07:40:29.047Z,335
2017-04-26T07:40:54.568Z,340
2017-04-26T07:41:20.183Z,340
2017-04-26T07:41:45.617Z,340
2017-04-26T07:42:11.103Z,340
2017-04-26T07:42:36.572Z,340
2017-04-26T07:43:02.094Z,340
2017-04-26T07:43:27.668Z,340
2017-04-26T07:43:53.080Z,340
2017-04-26T07:44:18.615Z,345
2017-04-26T07:44:44.091Z,350
2017-04-26T07:45:09.630Z,350
2017-04-26T07:45:35.143Z,355
2017-04-26T07:46:00.558Z,355
2017-04-26T07:46:26.178Z,355
2017-04-26T07:46:51.567Z,355
2017-04-26T07:47:17.109Z,355
2017-04-26T07:47:42.561Z,355
2017-04-26T07:48:08.114Z,355
2017-04-26T07:48:33.576Z,355
2017-04-26T07:48:59.067Z,355
2017-04-26T07:49:24.584Z,355
2017-04-26T07:49:50.027Z,350
2017-04-26T07:50:15.572Z,350
2017-04-26T07:50:41.063Z,345
2017-04-26T07:51:06.538Z,345
2017-04-26T07:51:32.039Z,345
2017-04-26T07:51:57.449Z,345
2017-04-26T07:52:22.918Z,340
2017-04-26T07:52:48.409Z,335
2017-04-26T07:53:13.896Z,335
2017-04-26T07:53:39.336Z,330
2017-04-26T07:54:04.837Z,325
2017-04-26T07:54:30.323Z,315
2017-04-26T07:54:55.813Z,310
2017-04-26T07:55:21.299Z,310
2017-04-26T07:55:46.833Z,305
2017-04-26T07:56:12.296Z,300
2017-04-26T07:56:37.787Z,295
2017-04-26T07:57:03.290Z,290
2017-04-26T07:57:28.708Z,285
2017-04-26T07:57:54.179Z,280
2017-04-26T07:58:19.768Z,275
2017-04-26T07:58:45.203Z,275
2017-04-26T07:59:10.687Z,275
2017-04-26T07:59:36.120Z,270
2017-04-26T08:00:01.676Z,270
2017-04-26T08:00:27.095Z,270
2017-04-26T08:00:52.552Z,265
2017-04-26T08:01:18.012Z,260
2017-04-26T08:01:43.479Z,255
2017-04-26T08:02:09.008Z,250
2017-04-26T08:02:34.480Z,245
2017-04-26T08:02:59.920Z,240
2017-04-26T08:03:25.451Z,235
2017-04-26T08:03:50.948Z,235
2017-04-26T08:04:16.412Z,230
2017-04-26T08:04:41.863Z,230
2017-04-26T08:05:07.352Z,230
2017-04-26T08:05:32.823Z,230
2017-04-26T08:05:58.278Z,235
2017-04-26T08:06:23.749Z,240
2017-04-26T08:06:49.226Z,240
2017-04-26T08:07:14.673Z,235
2017-04-26T08:07:40.173Z,240
2017-04-26T08:08:05.605Z,245
2017-04-26T08:08:31.150Z,250
2017-04-26T08:08:56.603Z,255
2017-04-26T08:09:22.093Z,265
2017-04-26T08:09:47.743Z,265
2017-04-26T08:10:13.219Z,265
2017-04-26T08:10:38.762Z,260
2017-04-26T08:11:04.259Z,260
2017-04-26T08:11:29.742Z,255
2017-04-26T08:11:55.183Z,255
2017-04-26T08:12:20.648Z,255
2017-04-26T08:12:46.130Z,250
2017-04-26T08:13:11.580Z,245
2017-04-26T08:13:37.093Z,245
2017-04-26T08:14:02.822Z,245
2017-04-26T08:14:28.564Z,240
2017-04-26T08:14:54.041Z,240
2017-04-26T08:15:19.753Z,240
2017-04-26T08:15:45.432Z,235
2017-04-26T08:16:10.701Z,240
2017-04-26T08:16:36.154Z,240
2017-04-26T08:17:01.642Z,240
2017-04-26T08:17:27.154Z,235
2017-04-26T08:17:52.705Z,235
2017-04-26T08:18:18.097Z,230
2017-04-26T08:18:43.573Z,230
2017-04-26T08:19:09.062Z,230
2017-04-26T08:19:34.581Z,235
2017-04-26T08:20:00.007Z,230
2017-04-26T08:20:25.486Z,230
2017-04-26T08:20:50.980Z,225
2017-04-26T08:21:16.497Z,230
2017-04-26T08:21:42.014Z,230
2017-04-26T08:22:07.487Z,235
2017-04-26T08:22:32.966Z,235
2017-04-26T08:22:58.474Z,235
2017-04-26T08:23:24.036Z,235
2017-04-26T08:23:49.533Z,240
2017-04-26T08:24:14.970Z,245
2017-04-26T08:24:40.500Z,245
2017-04-26T08:25:05.961Z,245
2017-04-26T08:25:31.423Z,250
2017-04-26T08:25:56.921Z,250
2017-04-26T08:26:22.360Z,255
2017-04-26T08:26:47.848Z,250
2017-04-26T08:27:13.335Z,250
2017-04-26T08:27:38.808Z,245
2017-04-26T08:28:04.255Z,240
2017-04-26T08:28:29.741Z,240
2017-04-26T08:28:55.288Z,235
2017-04-26T08:29:21.025Z,235
2017-04-26T08:29:46.601Z,235
2017-04-26T08:30:12.215Z,235
2017-04-26T08:30:37.812Z,235
2017-04-26T08:31:04.202Z,235
2017-04-26T08:31:29.659Z,240
2017-04-26T08:31:55.156Z,240
2017-04-26T08:32:20.571Z,240
2017-04-26T08:32:46.052Z,240
2017-04-26T08:33:11.539Z,245
2017-04-26T08:33:37.040Z,250
2017-04-26T08:34:02.419Z,260
2017-04-26T08:34:27.905Z,270
2017-04-26T08:34:53.343Z,275
2017-04-26T08:35:18.835Z,280
2017-04-26T08:35:44.300Z,280
2017-04-26T08:36:09.744Z,285
2017-04-26T08:36:35.207Z,285
2017-04-26T08:37:01.059Z,280
2017-04-26T08:37:26.782Z,280
2017-04-26T08:37:52.343Z,285
2017-04-26T08:38:17.882Z,290
2017-04-26T08:38:43.359Z,280
2017-04-26T08:39:08.810Z,280
2017-04-26T08:39:34.301Z,280
2017-04-26T08:39:59.780Z,280
2017-04-26T08:40:25.224Z,280
2017-04-26T08:40:50.699Z,280
2017-04-26T08:41:16.269Z,280
2017-04-26T08:41:41.968Z,280
2017-04-26T08:42:07.389Z,280
2017-04-26T08:42:32.860Z,265
2017-04-26T08:42:58.344Z,265
2017-04-26T08:43:23.836Z,260
2017-04-26T08:43:49.320Z,260
2017-04-26T08:44:14.880Z,260
2017-04-26T08:44:40.363Z,265
2017-04-26T08:45:05.793Z,260
2017-04-26T08:45:31.264Z,260
2017-04-26T08:45:56.869Z,255
2017-04-26T08:46:22.290Z,255
2017-04-26T08:46:47.778Z,250
2017-04-26T08:47:13.238Z,250
2017-04-26T08:47:38.690Z,250
2017-04-26T08:48:04.263Z,255
2017-04-26T08:48:29.720Z,265
2017-04-26T08:48:55.351Z,255
2017-04-26T08:49:20.851Z,260
2017-04-26T08:49:46.335Z,255
2017-04-26T08:50:11.837Z,260
2017-04-26T08:50:37.331Z,265
2017-04-26T08:51:02.791Z,265
2017-04-26T08:51:28.276Z,260
2017-04-26T08:51:53.739Z,260
2017-04-26T08:52:19.219Z,265
2017-04-26T08:52:44.805Z,265
2017-04-26T08:53:10.276Z,265
2017-04-26T08:53:35.764Z,275
2017-04-26T08:54:01.264Z,275
2017-04-26T08:54:26.980Z,270
2017-04-26T08:54:52.321Z,270
2017-04-26T08:55:17.766Z,270
2017-04-26T08:55:43.258Z,270
2017-04-26T08:56:08.730Z,275
2017-04-26T08:56:34.170Z,275
2017-04-26T08:56:59.686Z,280
2017-04-26T08:57:25.147Z,285
2017-04-26T08:57:50.663Z,280
2017-04-26T08:58:16.133Z,290
2017-04-26T08:58:41.610Z,290
2017-04-26T08:59:07.122Z,300
2017-04-26T08:59:32.666Z,305
2017-04-26T08:59:58.173Z,305
2017-04-26T09:00:23.668Z,315
2017-04-26T09:00:49.117Z,320
2017-04-26T09:01:14.785Z,320
2017-04-26T09:01:40.262Z,325
2017-04-26T09:02:05.737Z,325
2017-04-26T09:02:31.201Z,340
2017-04-26T09:02:56.688Z,350
2017-04-26T09:03:22.122Z,365
2017-04-26T09:03:47.599Z,380
2017-04-26T09:04:13.174Z,400
2017-04-26T09:04:38.987Z,405
2017-04-26T09:05:04.410Z,415
2017-04-26T09:05:29.905Z,425
2017-04-26T09:05:55.467Z,435
2017-04-26T09:06:20.995Z,450
2017-04-26T09:06:46.449Z,465
2017-04-26T09:07:11.907Z,485
2017-04-26T09:07:37.542Z,495
2017-04-26T09:08:03.010Z,500
2017-04-26T09:08:28.519Z,510
2017-04-26T09:08:54.007Z,520
2017-04-26T09:09:19.405Z,515
2017-04-26T09:09:44.894Z,515
2017-04-26T09:10:10.390Z,525
2017-04-26T09:10:35.883Z,540
2017-04-26T09:11:01.383Z,555
2017-04-26T09:11:26.990Z,555
2017-04-26T09:11:52.377Z,540
2017-04-26T09:12:17.871Z,520
2017-04-26T09:12:43.410Z,490
2017-04-26T09:13:08.878Z,460
2017-04-26T09:13:34.359Z,425
2017-04-26T09:13:59.818Z,415
2017-04-26T09:14:25.372Z,400
2017-04-26T09:14:50.772Z,390
2017-04-26T09:15:16.266Z,375
2017-04-26T09:15:41.742Z,370
2017-04-26T09:16:07.195Z,375
2017-04-26T09:16:32.761Z,365
2017-04-26T09:16:58.235Z,355
2017-04-26T09:17:23.735Z,355
2017-04-26T09:17:49.207Z,355
2017-04-26T09:18:14.683Z,350
2017-04-26T09:18:40.198Z,345
2017-04-26T09:19:05.638Z,330
2017-04-26T09:19:31.132Z,320
2017-04-26T09:19:56.568Z,315
2017-04-26T09:20:22.065Z,310
2017-04-26T09:20:47.483Z,300
2017-04-26T09:21:12.954Z,295
2017-04-26T09:21:38.456Z,285
2017-04-26T09:22:03.987Z,275
2017-04-26T09:22:29.353Z,265
2017-04-26T09:22:54.821Z,260
2017-04-26T09:23:20.273Z,255
2017-04-26T09:23:45.795Z,250
2017-04-26T09:24:11.261Z,245
2017-04-26T09:24:36.735Z,235
2017-04-26T09:25:02.400Z,230
2017-04-26T09:25:27.730Z,230
2017-04-26T09:25:53.202Z,230
2017-04-26T09:26:18.691Z,235
2017-04-26T09:26:44.231Z,230
2017-04-26T09:27:09.663Z,235
2017-04-26T09:27:35.118Z,235
2017-04-26T09:28:00.597Z,240
2017-04-26T09:28:26.084Z,245
2017-04-26T09:28:51.557Z,250
2017-04-26T09:29:16.985Z,255
2017-04-26T09:29:42.522Z,265
2017-04-26T09:30:07.966Z,265
2017-04-26T09:30:33.452Z,270
2017-04-26T09:30:58.903Z,275
2017-04-26T09:31:24.395Z,280
2017-04-26T09:31:49.851Z,285
2017-04-26T09:32:15.362Z,290
2017-04-26T09:32:40.801Z,295
2017-04-26T09:33:06.360Z,300
2017-04-26T09:33:31.797Z,305
2017-04-26T09:33:57.311Z,310
2017-04-26T09:34:22.860Z,315
2017-04-26T09:34:48.327Z,315
2017-04-26T09:35:13.793Z,320
2017-04-26T09:35:39.366Z,320
2017-04-26T09:36:04.846Z,330
2017-04-26T09:36:30.335Z,325
2017-04-26T09:36:55.831Z,330
2017-04-26T09:37:21.276Z,330
2017-04-26T09:37:46.860Z,335
2017-04-26T09:38:12.307Z,340
2017-04-26T09:38:37.780Z,345
2017-04-26T09:39:03.250Z,345
2017-04-26T09:39:28.816Z,350
2017-04-26T09:39:54.389Z,355
2017-04-26T09:40:20.069Z,360
2017-04-26T09:40:45.741Z,360
2017-04-26T09:41:11.223Z,365
2017-04-26T09:41:36.695Z,365
2017-04-26T09:42:02.197Z,375
2017-04-26T09:42:27.694Z,370
2017-04-26T09:42:53.187Z,370
2017-04-26T09:43:18.811Z,370
2017-04-26T09:43:44.413Z,370
2017-04-26T09:44:10.075Z,370
2017-04-26T09:44:35.811Z,365
2017-04-26T09:45:01.603Z,365
2017-04-26T09:45:27.391Z,365
2017-04-26T09:45:52.912Z,355
2017-04-26T09:46:18.652Z,355
2017-04-26T09:46:44.128Z,345
2017-04-26T09:47:10.030Z,340
2017-04-26T09:47:35.405Z,335
2017-04-26T09:48:00.914Z,330
2017-04-26T09:48:26.581Z,325
2017-04-26T09:48:52.076Z,320
2017-04-26T09:49:17.591Z,325
2017-04-26T09:49:43.128Z,315
2017-04-26T09:50:08.709Z,315
2017-04-26T09:50:34.378Z,310
2017-04-26T09:50:59.887Z,310
2017-04-26T09:51:25.247Z,310
2017-04-26T09:51:50.693Z,315
2017-04-26T09:52:16.163Z,315
2017-04-26T09:52:41.780Z,315
2017-04-26T09:53:07.395Z,325
2017-04-26T09:53:32.893Z,330
2017-04-26T09:53:58.741Z,330
2017-04-26T09:54:24.134Z,335
2017-04-26T09:54:49.646Z,345
2017-04-26T09:55:15.222Z,350
2017-04-26T09:55:40.773Z,360